EKCHEKRK

Guest
Details From EKCH - Kastrup
To EKRK - Roskilde
Flight Number -
Tags Generated
Created
Modified
Stats Distance 17 nm / 32 km
Max Altitude 0 ft / 0 m
Waypoints 2
Social Downloads 4
Likes 0
Share VATSIM

Download

Looking for another format? Having issues loading an existing format? Contact us
Advertisement - Login to hide

Notes

Generated

Route

EKCH EKRK

ID Type Via Altitude Latitude Longitude Leg Dist Tot Dist Heading (true) Name
O EKCH APT - 0 ft / 0 m 55.62761˚ 12.62973˚ - 0 nm - -
O EKRK APT - 0 ft / 0 m 55.57840˚ 12.12385˚ 17 nm 17 nm 260° / 260° -

Altitude Profile

Advertisement - Login to hide

EKCH

Details ICAO EKCH (CPH)
Name Kastrup
Region Denmark / Faroe Islands
Timezone Europe/Copenhagen (UTC+1.0)
Stats Elevation 17 ft / 5 m (AMSL)
Location 55.612915° 12.640961°
Runways 3
Magnetic Variation 3.726° E

METAR

EKCH 180850Z 19008KT 9999 BKN006 02/01 Q1023 R04L/310160 R04R/310162 R12/310162 NOSIG

Decode

TAF

TAF EKCH 172306Z 1800/1824 20008KT 9999 SCT015 TEMPO 1800/1806 2000 MIFG BR TEMPO 1806/1815 BKN012 TEMPO 1815/1824 BKN008

Decode

Departure Runways

ID Width Length Bearing (true) Bearing (mag) Surface Threshold Offset Overrun Length
04L 148 ft / 45 m 11,848 ft / 3,611 m 41.15° 37.42° Asphalt 0 ft / 0 m 0 ft / 0 m
04R 148 ft / 45 m 10,814 ft / 3,296 m 41.15° 37.42° Asphalt 0 ft / 0 m 0 ft / 0 m
12 148 ft / 45 m 10,047 ft / 3,063 m 123.21° 119.48° Asphalt 2,313 ft / 705 m 0 ft / 0 m
22L 148 ft / 45 m 10,814 ft / 3,296 m 221.17° 217.44° Asphalt 0 ft / 0 m 0 ft / 0 m
22R 148 ft / 45 m 11,848 ft / 3,611 m 221.18° 217.45° Asphalt 2,018 ft / 615 m 0 ft / 0 m
30 148 ft / 45 m 10,047 ft / 3,063 m 303.25° 299.52° Asphalt 886 ft / 270 m 0 ft / 0 m

EKRK

Details ICAO EKRK (RKE)
Name Copenhagen Roskilde INT
Region Denmark / Faroe Islands
Timezone Europe/Copenhagen (UTC+1.0)
Stats Elevation 146 ft / 45 m (AMSL)
Location 55.585296° 12.129176°
Runways 2
Magnetic Variation 3.551° E

METAR

EKRK 180850Z AUTO 19008KT 1700NDV BR OVC001/// 01/01 Q1023 R99/390136 R99/310154

Decode

TAF

Not found

Destination Runways

ID Width Length Bearing (true) Bearing (mag) Surface Threshold Offset Overrun Length
03 105 ft / 32 m 4,926 ft / 1,501 m 30.86° 27.31° Asphalt 0 ft / 0 m 0 ft / 0 m
11 105 ft / 32 m 5,908 ft / 1,801 m 116.31° 112.76° Asphalt 0 ft / 0 m 0 ft / 0 m
21 105 ft / 32 m 4,926 ft / 1,501 m 210.88° 207.33° Asphalt 0 ft / 0 m 0 ft / 0 m
29 105 ft / 32 m 5,908 ft / 1,801 m 296.33° 292.78° Asphalt 194 ft / 59 m 0 ft / 0 m

Approach Navaids

Runway Type Ident Frequency Range Bearing (true) Bearing (mag) Slope Elevation
11 Localiser KV 111.50 MHz 18 nm / 33 km 116.32° 112.77° - 146 ft / 45 m (AMSL)
11 Glidescope KV 111.50 MHz 10 nm / 19 km 116.32° 112.77° 3.00° 146 ft / 45 m (AMSL)
11 DME KV 111.50 MHz 18 nm / 33 km - - - 140 ft / 43 m (AMSL)
21 Localiser SN 108.70 MHz 18 nm / 33 km 210.86° 207.31° - 146 ft / 45 m (AMSL)
21 Glidescope SN 108.70 MHz 10 nm / 19 km 210.87° 207.32° 3.00° 146 ft / 45 m (AMSL)

Popular Alternatives